Reston, Canada
Current Conditions -  °F | °C
As of 12:00 PM on Monday 26 Jan 2015 (Local Time) from CYBR Reporting Station
Broken Clouds Broken Clouds  
Wind Chill: 27°   Ceiling: 22000
Heat Index: 34°   Visibility: 15mi
Dew Point: 28°   Wind: 8mph
Humidity: 81%   Direction: 300°WNW
Pressure: 29.91"   Gusts: NA
Location:  49.55°N, 101.08°W
Report Text: CYBR 261800Z 30007KT 15SM BKN220 01/M02 A2991 RMK CI7 SLP149
Loading
Personal Weather Stations






























Interactive Weather Map New forecast layout! Learn more

10-Day Weather Forecast

Advertisements
Track Severe Weather on mobile